Time;durP1;ratioP1;P1;durP2;ratioP2;P2;SDS_P1;SDS_P2;PMS_P1;PMS_P2;Temp;Humidity;BMP_temperature;BMP_pressure;BME280_temperature;BME280_humidity;BME280_pressure;Samples;Min_cycle;Max_cycle;Signal;HPM_P1;HPM_P2
2022/10/23 00:00:21;;;;;;;24.60;18.35;;;10.70;99.90;;;;;;2072874;28;20052;-73
2022/10/23 00:01:25;;;;;;;24.15;17.88;;;10.80;99.90;;;;;;2080744;28;20057;-71
2022/10/23 00:02:26;;;;;;;25.70;17.55;;;10.80;99.90;;;;;;2080734;28;20048;-71
2022/10/23 00:03:26;;;;;;;22.88;17.95;;;10.80;99.90;;;;;;2080315;28;20033;-73
2022/10/23 00:04:27;;;;;;;21.85;17.23;;;10.80;99.90;;;;;;2079506;28;20541;-72
2022/10/23 00:05:29;;;;;;;24.95;17.92;;;10.90;99.90;;;;;;2079816;28;20029;-73
2022/10/23 00:06:32;;;;;;;21.58;17.33;;;10.90;99.90;;;;;;2080497;28;20387;-73
2022/10/23 00:07:32;;;;;;;24.17;18.25;;;10.90;99.90;;;;;;2079749;28;20156;-70
2022/10/23 00:08:33;;;;;;;26.35;18.52;;;10.90;99.90;;;;;;2079777;28;20132;-72
2022/10/23 00:09:34;;;;;;;27.20;19.30;;;10.90;99.90;;;;;;2080620;28;20029;-71
2022/10/23 00:10:34;;;;;;;26.23;18.42;;;10.90;99.90;;;;;;2087950;28;20028;-71
2022/10/23 00:11:35;;;;;;;24.58;18.55;;;10.90;99.90;;;;;;2088055;28;20519;-71
2022/10/23 00:12:37;;;;;;;25.45;18.63;;;10.90;99.90;;;;;;2080439;28;20033;-72
2022/10/23 00:13:39;;;;;;;25.77;18.13;;;10.90;99.90;;;;;;2079656;28;20029;-71
2022/10/23 00:14:40;;;;;;;23.48;18.33;;;10.90;99.90;;;;;;2079677;28;20029;-71
2022/10/23 00:15:40;;;;;;;22.10;17.20;;;10.90;99.90;;;;;;2071554;28;20080;-71
2022/10/23 00:16:41;;;;;;;24.05;17.77;;;10.90;99.90;;;;;;2079975;28;20115;-73
2022/10/23 00:17:42;;;;;;;23.20;17.85;;;11.00;99.90;;;;;;2088298;28;20086;-72
2022/10/23 00:18:43;;;;;;;27.48;18.88;;;11.00;99.90;;;;;;2088242;28;20020;-71
2022/10/23 00:19:43;;;;;;;25.58;18.42;;;10.90;99.90;;;;;;2096397;28;20040;-71
2022/10/23 00:20:44;;;;;;;25.40;18.30;;;11.00;99.90;;;;;;2079751;28;20043;-71
2022/10/23 00:21:44;;;;;;;26.27;18.40;;;11.00;99.90;;;;;;2071169;28;20084;-71
2022/10/23 00:22:45;;;;;;;23.85;17.95;;;11.00;99.90;;;;;;2071556;28;20112;-72
2022/10/23 00:23:46;;;;;;;24.77;18.42;;;11.00;99.90;;;;;;2080225;28;20060;-70
2022/10/23 00:24:46;;;;;;;28.20;18.35;;;11.00;99.90;;;;;;2095257;28;20090;-70
2022/10/23 00:25:47;;;;;;;26.13;18.10;;;11.00;99.90;;;;;;2096265;28;20016;-72
2022/10/23 00:26:51;;;;;;;24.00;16.73;;;10.90;99.90;;;;;;2080425;28;20272;-70
2022/10/23 00:27:51;;;;;;;23.63;17.05;;;10.90;99.90;;;;;;2080333;28;20112;-73
2022/10/23 00:28:53;;;;;;;22.95;16.67;;;10.90;99.90;;;;;;2080245;28;20488;-72
2022/10/23 00:29:54;;;;;;;24.25;17.17;;;10.90;99.90;;;;;;2084001;28;20038;-72
2022/10/23 00:30:55;;;;;;;23.83;17.42;;;10.90;99.90;;;;;;2077712;28;20070;-72
2022/10/23 00:31:55;;;;;;;22.80;16.52;;;10.90;99.90;;;;;;2075469;28;20177;-72
2022/10/23 00:32:56;;;;;;;24.08;16.70;;;10.90;99.90;;;;;;2089612;28;20029;-72
2022/10/23 00:33:57;;;;;;;22.88;17.00;;;10.90;99.90;;;;;;2088249;28;20696;-71
2022/10/23 00:34:57;;;;;;;24.63;17.60;;;10.80;99.90;;;;;;2087760;28;20036;-71
2022/10/23 00:35:59;;;;;;;23.08;17.05;;;10.80;99.90;;;;;;2085350;28;20075;-72
2022/10/23 00:37:00;;;;;;;23.33;17.23;;;10.80;99.90;;;;;;2080064;28;20024;-72
2022/10/23 00:38:00;;;;;;;23.23;17.88;;;10.80;99.90;;;;;;2080176;28;20022;-71
2022/10/23 00:39:01;;;;;;;21.40;16.67;;;10.80;99.90;;;;;;2080279;28;20760;-71
2022/10/23 00:40:03;;;;;;;21.30;16.70;;;10.80;99.90;;;;;;2080205;28;20030;-72
2022/10/23 00:41:06;;;;;;;19.95;15.90;;;10.80;99.90;;;;;;2079448;28;20172;-72
2022/10/23 00:42:06;;;;;;;23.50;17.60;;;10.80;99.90;;;;;;2079491;28;20041;-72
2022/10/23 00:43:20;;;;;;;22.10;16.95;;;10.80;99.90;;;;;;2080049;28;20498;-72
2022/10/23 00:44:21;;;;;;;20.65;16.55;;;10.70;99.90;;;;;;2074295;28;20105;-71
2022/10/23 00:45:27;;;;;;;19.70;15.93;;;10.70;99.90;;;;;;2078450;28;20093;-71
2022/10/23 00:46:28;;;;;;;22.13;16.35;;;10.70;99.90;;;;;;2080151;28;20075;-71
2022/10/23 00:47:29;;;;;;;18.90;15.02;;;10.70;99.90;;;;;;2079324;28;20036;-71
2022/10/23 00:48:29;;;;;;;18.98;15.02;;;10.70;99.90;;;;;;2079593;28;20435;-71
2022/10/23 00:49:31;;;;;;;19.45;14.95;;;10.70;99.90;;;;;;2079297;28;20111;-71
2022/10/23 00:50:32;;;;;;;19.27;15.05;;;10.60;99.90;;;;;;2079254;28;20155;-72
2022/10/23 00:51:39;;;;;;;18.80;15.05;;;10.60;99.90;;;;;;2071215;28;20030;-71
2022/10/23 00:52:46;;;;;;;18.10;14.73;;;10.60;99.90;;;;;;2071981;28;20040;-71
2022/10/23 00:53:50;;;;;;;17.92;14.93;;;10.60;99.90;;;;;;2079614;28;20031;-71
2022/10/23 00:54:51;;;;;;;21.70;15.63;;;10.60;99.90;;;;;;2078628;28;20025;-71
2022/10/23 00:55:54;;;;;;;19.23;14.77;;;10.60;99.90;;;;;;2079466;28;20080;-71
2022/10/23 00:56:58;;;;;;;19.92;15.63;;;10.60;99.90;;;;;;2080047;28;20111;-71
2022/10/23 00:57:59;;;;;;;18.80;15.20;;;10.60;99.90;;;;;;2079397;28;20033;-71
2022/10/23 00:59:00;;;;;;;19.55;15.35;;;10.50;99.90;;;;;;2079429;28;20124;-72
2022/10/23 01:00:01;;;;;;;19.80;14.70;;;10.50;99.90;;;;;;2079266;28;20030;-70
2022/10/23 01:01:01;;;;;;;19.15;14.90;;;10.50;99.90;;;;;;2087480;28;20064;-71
2022/10/23 01:02:03;;;;;;;20.65;15.55;;;10.50;99.90;;;;;;2088228;28;20036;-71
2022/10/23 01:03:04;;;;;;;20.08;15.90;;;10.50;99.90;;;;;;2087615;28;20112;-71
2022/10/23 01:04:06;;;;;;;19.40;15.40;;;10.50;99.90;;;;;;2087119;28;20025;-70
2022/10/23 01:05:07;;;;;;;19.10;15.32;;;10.50;99.90;;;;;;2079298;28;20040;-70
2022/10/23 01:06:36;;;;;;;21.88;15.82;;;10.50;99.90;;;;;;2079556;28;20049;-71
2022/10/23 01:07:50;;;;;;;19.67;15.40;;;10.50;99.90;;;;;;2079436;28;20364;-71
2022/10/23 01:09:13;;;;;;;19.70;15.35;;;10.40;99.90;;;;;;2079155;28;20033;-71
2022/10/23 01:10:27;;;;;;;20.08;15.00;;;10.40;99.90;;;;;;2078991;28;20025;-71
2022/10/23 01:11:38;;;;;;;20.02;15.93;;;10.40;99.90;;;;;;2079340;28;20037;-71
2022/10/23 01:13:07;;;;;;;22.23;16.52;;;10.40;99.90;;;;;;2079411;28;20071;-71
2022/10/23 01:14:14;;;;;;;21.70;16.27;;;10.40;99.90;;;;;;2079428;28;20112;-71
2022/10/23 01:15:25;;;;;;;21.33;16.25;;;10.40;99.90;;;;;;2078956;28;20030;-72
2022/10/23 01:16:40;;;;;;;20.83;16.10;;;10.40;99.90;;;;;;2072417;28;20026;-71
2022/10/23 01:17:53;;;;;;;22.45;16.73;;;10.40;99.90;;;;;;2088124;28;20493;-72
2022/10/23 01:19:15;;;;;;;21.08;16.30;;;10.40;99.90;;;;;;2085795;28;20040;-71
2022/10/23 01:20:38;;;;;;;21.60;16.25;;;10.40;99.90;;;;;;2079078;28;20708;-71
2022/10/23 01:21:45;;;;;;;22.13;16.27;;;10.30;99.90;;;;;;2071110;28;20022;-71
2022/10/23 01:23:13;;;;;;;23.45;16.30;;;10.30;99.90;;;;;;2071814;28;20025;-72
2022/10/23 01:24:36;;;;;;;23.27;16.60;;;10.40;99.90;;;;;;2079012;28;20036;-72
2022/10/23 01:26:06;;;;;;;20.27;15.52;;;10.40;99.90;;;;;;2079233;28;20071;-72
2022/10/23 01:27:17;;;;;;;25.35;17.02;;;10.30;99.90;;;;;;2078764;28;20030;-72
2022/10/23 01:28:35;;;;;;;20.52;15.95;;;10.30;99.90;;;;;;2078396;28;20045;-71
2022/10/23 01:29:42;;;;;;;21.67;16.10;;;10.30;99.90;;;;;;2087579;28;20025;-72
2022/10/23 01:30:43;;;;;;;22.13;16.65;;;10.30;99.90;;;;;;2087600;28;20099;-72
2022/10/23 01:32:08;;;;;;;22.17;17.45;;;10.30;99.90;;;;;;2085731;28;20013;-72
2022/10/23 01:33:13;;;;;;;22.98;16.63;;;10.30;99.90;;;;;;2079349;28;20535;-71
2022/10/23 01:34:46;;;;;;;23.00;17.02;;;10.30;99.90;;;;;;2079039;28;20561;-72
2022/10/23 01:35:58;;;;;;;22.58;16.65;;;10.30;99.90;;;;;;2071066;28;20087;-71
2022/10/23 01:37:01;;;;;;;21.88;16.30;;;10.30;99.90;;;;;;2079663;28;20018;-71
2022/10/23 01:38:17;;;;;;;22.25;17.15;;;10.30;99.90;;;;;;2079161;28;20056;-71
2022/10/23 01:39:24;;;;;;;22.95;17.27;;;10.30;99.90;;;;;;2078967;28;20886;-71
2022/10/23 01:40:32;;;;;;;23.02;17.50;;;10.30;99.90;;;;;;2071641;28;20048;-71
2022/10/23 01:41:41;;;;;;;23.08;17.73;;;10.30;99.90;;;;;;2071866;28;20068;-71
2022/10/23 01:42:49;;;;;;;24.90;18.85;;;10.30;99.90;;;;;;2072054;28;20767;-72
2022/10/23 01:43:58;;;;;;;25.65;18.42;;;10.30;99.90;;;;;;2071872;28;20088;-71
2022/10/23 01:45:18;;;;;;;23.75;18.02;;;10.30;99.90;;;;;;2078969;28;20029;-71
2022/10/23 01:46:19;;;;;;;25.80;18.38;;;10.30;99.90;;;;;;2073121;28;20040;-71
2022/10/23 01:47:25;;;;;;;29.30;20.85;;;10.30;99.90;;;;;;2079044;28;20027;-71
2022/10/23 01:48:52;;;;;;;31.30;21.05;;;10.20;99.90;;;;;;2079041;28;20025;-72
2022/10/23 01:49:56;;;;;;;33.55;21.88;;;10.20;99.90;;;;;;2070695;28;20025;-71
2022/10/23 01:51:00;;;;;;;29.60;20.35;;;10.20;99.90;;;;;;2071584;28;20036;-71
2022/10/23 01:52:07;;;;;;;29.75;20.00;;;10.20;99.90;;;;;;2087006;28;20021;-72
2022/10/23 01:53:08;;;;;;;29.42;19.73;;;10.20;99.90;;;;;;2070892;28;20034;-72
2022/10/23 01:54:12;;;;;;;31.98;21.10;;;10.20;99.90;;;;;;2078447;28;20022;-72
2022/10/23 01:55:16;;;;;;;29.88;20.75;;;10.20;99.90;;;;;;2086278;28;20025;-73
2022/10/23 01:56:24;;;;;;;29.50;20.60;;;10.20;99.90;;;;;;2071211;28;20101;-71
2022/10/23 01:57:28;;;;;;;31.63;20.85;;;10.20;99.90;;;;;;2088252;28;20807;-73
2022/10/23 01:58:32;;;;;;;31.88;21.40;;;10.20;99.90;;;;;;2094689;28;20441;-71
2022/10/23 01:59:37;;;;;;;33.90;22.15;;;10.20;99.90;;;;;;2078903;28;20026;-71
2022/10/23 02:00:43;;;;;;;36.22;22.65;;;10.30;99.90;;;;;;2079137;28;20080;-71
2022/10/23 02:01:46;;;;;;;34.60;22.05;;;10.20;99.90;;;;;;2078792;28;20025;-71
2022/10/23 02:02:51;;;;;;;37.25;23.30;;;10.20;99.90;;;;;;2078795;28;20032;-72
2022/10/23 02:03:53;;;;;;;32.05;21.80;;;10.20;99.90;;;;;;2071020;28;20044;-72
2022/10/23 02:05:02;;;;;;;31.88;21.77;;;10.20;99.90;;;;;;2078463;28;20026;-70
2022/10/23 02:06:03;;;;;;;31.10;20.67;;;10.20;99.90;;;;;;2078940;28;20056;-70
2022/10/23 02:07:04;;;;;;;31.48;20.50;;;10.20;99.90;;;;;;2070831;28;20397;-72
2022/10/23 02:08:05;;;;;;;29.85;20.80;;;10.20;99.90;;;;;;2070643;28;20064;-71
2022/10/23 02:09:06;;;;;;;31.77;21.27;;;10.20;99.90;;;;;;2070538;28;20034;-70
2022/10/23 02:10:08;;;;;;;32.33;21.27;;;10.20;99.90;;;;;;2078763;28;20051;-72
2022/10/23 02:11:14;;;;;;;31.58;21.13;;;10.20;99.90;;;;;;2078700;28;20030;-72
2022/10/23 02:12:23;;;;;;;32.78;21.55;;;10.20;99.90;;;;;;2078880;28;20029;-72
2022/10/23 02:13:34;;;;;;;33.30;21.40;;;10.20;99.90;;;;;;2078999;28;20030;-72
2022/10/23 02:14:39;;;;;;;35.75;22.92;;;10.20;99.90;;;;;;2071801;28;20057;-72
2022/10/23 02:15:57;;;;;;;33.75;22.00;;;10.20;99.90;;;;;;2071350;28;20056;-72
2022/10/23 02:17:10;;;;;;;34.08;22.20;;;10.20;99.90;;;;;;2079030;28;20112;-72
2022/10/23 02:18:36;;;;;;;34.20;22.33;;;10.20;99.90;;;;;;2072341;28;20030;-72
2022/10/23 02:20:07;;;;;;;34.95;21.85;;;10.20;99.90;;;;;;2067030;28;20037;-72
2022/10/23 02:21:20;;;;;;;31.23;21.13;;;10.20;99.90;;;;;;2076450;28;20068;-72
2022/10/23 02:22:26;;;;;;;29.88;20.30;;;10.20;99.90;;;;;;2079335;28;20053;-72
2022/10/23 02:23:34;;;;;;;29.67;20.33;;;10.20;99.90;;;;;;2080235;28;20119;-72
2022/10/23 02:25:12;;;;;;;29.33;20.15;;;10.20;99.90;;;;;;2070517;28;20515;-72
2022/10/23 02:26:22;;;;;;;28.25;20.08;;;10.20;99.90;;;;;;2067078;28;20650;-72
2022/10/23 02:27:36;;;;;;;29.15;20.17;;;10.20;99.90;;;;;;2055750;28;20051;-72
2022/10/23 02:28:42;;;;;;;27.13;19.38;;;10.20;99.90;;;;;;2064932;28;20029;-71
2022/10/23 02:29:52;;;;;;;27.33;20.38;;;10.20;99.90;;;;;;2079832;28;20080;-72
2022/10/23 02:30:58;;;;;;;27.08;19.25;;;10.20;99.90;;;;;;2079708;28;20025;-72
2022/10/23 02:32:00;;;;;;;27.73;19.88;;;10.20;99.90;;;;;;2079524;28;20518;-72
2022/10/23 02:33:02;;;;;;;26.55;18.95;;;10.20;99.90;;;;;;2079975;28;20030;-75
2022/10/23 02:34:03;;;;;;;24.98;18.67;;;10.20;99.90;;;;;;2079682;28;20606;-72
2022/10/23 02:35:04;;;;;;;26.83;19.27;;;10.20;99.90;;;;;;2079132;28;20049;-72
2022/10/23 02:36:05;;;;;;;28.08;19.20;;;10.20;99.90;;;;;;2071102;28;20560;-71
2022/10/23 02:37:06;;;;;;;26.58;19.88;;;10.20;99.90;;;;;;2070800;28;20030;-71
2022/10/23 02:38:33;;;;;;;28.65;20.55;;;10.20;99.90;;;;;;2078979;28;20533;-70
2022/10/23 02:39:34;;;;;;;25.55;19.02;;;10.20;99.90;;;;;;2078990;28;20128;-70
2022/10/23 02:40:42;;;;;;;26.25;18.88;;;10.20;99.90;;;;;;2070768;28;20034;-70
2022/10/23 02:41:50;;;;;;;25.35;18.42;;;10.20;99.90;;;;;;2079035;28;20116;-70
2022/10/23 02:42:56;;;;;;;24.40;17.90;;;10.20;99.90;;;;;;2078916;28;20037;-72
2022/10/23 02:44:09;;;;;;;24.02;18.10;;;10.20;99.90;;;;;;2087125;28;20036;-72
2022/10/23 02:45:19;;;;;;;24.95;18.25;;;10.20;99.90;;;;;;2085222;28;20380;-71
2022/10/23 02:46:30;;;;;;;24.05;17.40;;;10.20;99.90;;;;;;2071926;28;20053;-72
2022/10/23 02:47:56;;;;;;;24.08;18.40;;;10.20;99.90;;;;;;2079016;28;20021;-72
2022/10/23 02:49:12;;;;;;;24.40;17.67;;;10.20;99.90;;;;;;2080980;28;20037;-72
2022/10/23 02:50:29;;;;;;;25.13;17.70;;;10.20;99.90;;;;;;2081121;28;20025;-73
2022/10/23 02:51:55;;;;;;;22.80;17.42;;;10.20;99.90;;;;;;2080994;28;20060;-74
2022/10/23 02:53:29;;;;;;;25.17;18.15;;;10.20;99.90;;;;;;2080310;28;20047;-70
2022/10/23 02:54:57;;;;;;;24.77;17.90;;;10.20;99.90;;;;;;2079685;28;20463;-71
2022/10/23 02:56:32;;;;;;;23.70;17.25;;;10.20;99.90;;;;;;2072295;28;20033;-70
2022/10/23 02:57:43;;;;;;;23.50;17.63;;;10.20;99.90;;;;;;2072736;28;20550;-71
2022/10/23 02:59:00;;;;;;;23.75;18.08;;;10.10;99.90;;;;;;2072142;28;20022;-70
2022/10/23 03:00:06;;;;;;;24.20;17.83;;;10.20;99.90;;;;;;2082588;28;20037;-70
2022/10/23 03:01:17;;;;;;;24.40;18.05;;;10.10;99.90;;;;;;2079649;28;20076;-70
2022/10/23 03:02:24;;;;;;;26.15;18.05;;;10.20;99.90;;;;;;2065287;28;20033;-71
2022/10/23 03:03:33;;;;;;;24.23;17.60;;;10.20;99.90;;;;;;2064753;28;20037;-70
2022/10/23 03:04:38;;;;;;;24.23;18.27;;;10.20;99.90;;;;;;2072786;28;20041;-71
2022/10/23 03:05:40;;;;;;;24.25;18.10;;;10.20;99.90;;;;;;2063843;28;20462;-70
2022/10/23 03:06:41;;;;;;;22.98;17.48;;;10.20;99.90;;;;;;2063832;28;20031;-73
2022/10/23 03:07:48;;;;;;;24.08;17.80;;;10.20;99.90;;;;;;2073554;28;20030;-70
2022/10/23 03:08:58;;;;;;;23.50;17.50;;;10.20;99.90;;;;;;2088120;28;20518;-70
2022/10/23 03:09:59;;;;;;;23.85;17.33;;;10.20;99.90;;;;;;2080501;28;20029;-70
2022/10/23 03:11:00;;;;;;;23.40;17.48;;;10.20;99.90;;;;;;2079888;28;20029;-70
2022/10/23 03:12:02;;;;;;;23.02;17.67;;;10.20;99.90;;;;;;2071977;28;20064;-70
2022/10/23 03:13:07;;;;;;;24.00;17.65;;;10.20;99.90;;;;;;2071924;28;20029;-71
2022/10/23 03:14:14;;;;;;;25.05;18.52;;;10.10;99.90;;;;;;2069467;28;20035;-70
2022/10/23 03:15:16;;;;;;;24.17;17.58;;;10.10;99.90;;;;;;2080114;28;20434;-71
2022/10/23 03:16:17;;;;;;;24.65;18.35;;;10.10;99.90;;;;;;2080021;28;20029;-71
2022/10/23 03:17:24;;;;;;;24.85;18.48;;;10.10;99.90;;;;;;2064421;28;20762;-70
2022/10/23 03:18:28;;;;;;;23.90;17.83;;;10.10;99.90;;;;;;2080618;28;20036;-71
2022/10/23 03:19:31;;;;;;;23.08;17.35;;;10.10;99.90;;;;;;2072653;28;20025;-71
2022/10/23 03:20:32;;;;;;;26.50;19.00;;;10.00;99.90;;;;;;2088279;28;20115;-71
2022/10/23 03:21:33;;;;;;;27.50;19.77;;;10.00;99.90;;;;;;2088315;28;20020;-70
2022/10/23 03:22:37;;;;;;;24.83;18.85;;;10.00;99.90;;;;;;2088346;28;20122;-70
2022/10/23 03:23:37;;;;;;;26.48;19.25;;;10.00;99.90;;;;;;2088192;28;20518;-70
2022/10/23 03:24:38;;;;;;;26.73;18.83;;;10.00;99.90;;;;;;2063264;28;20014;-70
2022/10/23 03:25:39;;;;;;;24.73;18.33;;;10.00;99.90;;;;;;2071762;28;20079;-70
2022/10/23 03:26:39;;;;;;;25.08;18.77;;;10.00;99.90;;;;;;2080126;28;20048;-70
2022/10/23 03:27:40;;;;;;;22.48;17.45;;;10.00;99.90;;;;;;2072075;28;20026;-71
2022/10/23 03:28:44;;;;;;;26.70;18.33;;;10.00;99.90;;;;;;2072306;28;20034;-70
2022/10/23 03:29:44;;;;;;;23.17;17.48;;;10.00;99.90;;;;;;2080360;28;20041;-71
2022/10/23 03:30:45;;;;;;;24.27;17.95;;;10.00;99.90;;;;;;2080264;28;20025;-70
2022/10/23 03:31:45;;;;;;;24.85;18.17;;;9.90;99.90;;;;;;2071991;28;20933;-72
2022/10/23 03:32:47;;;;;;;24.77;18.13;;;10.00;99.90;;;;;;2079921;28;20480;-73
2022/10/23 03:33:47;;;;;;;27.23;18.40;;;9.90;99.90;;;;;;2079775;28;20029;-70
2022/10/23 03:34:48;;;;;;;25.70;18.65;;;9.90;99.90;;;;;;2073406;28;20490;-70
2022/10/23 03:35:49;;;;;;;25.88;18.65;;;9.90;99.90;;;;;;2079856;28;20559;-71
2022/10/23 03:36:50;;;;;;;25.75;18.30;;;9.90;99.90;;;;;;2072557;28;20554;-70
2022/10/23 03:37:54;;;;;;;23.75;17.52;;;9.90;99.90;;;;;;2071859;28;20432;-71
2022/10/23 03:38:59;;;;;;;26.00;17.65;;;9.90;99.90;;;;;;2063623;28;20030;-71
2022/10/23 03:39:59;;;;;;;25.88;19.23;;;9.90;99.90;;;;;;2055842;28;20042;-72
2022/10/23 03:41:03;;;;;;;25.05;18.00;;;9.90;99.90;;;;;;2072604;28;20033;-70
2022/10/23 03:42:03;;;;;;;25.20;17.40;;;9.90;99.90;;;;;;2088406;28;20052;-70
2022/10/23 03:43:04;;;;;;;24.42;17.67;;;9.80;99.90;;;;;;2072416;28;20026;-70
2022/10/23 03:44:04;;;;;;;24.60;18.27;;;9.80;99.90;;;;;;2071550;28;20030;-71
2022/10/23 03:45:06;;;;;;;26.58;18.25;;;9.80;99.90;;;;;;2072481;28;20029;-72
2022/10/23 03:46:11;;;;;;;21.92;16.92;;;9.80;99.90;;;;;;2079704;28;20034;-75
2022/10/23 03:47:11;;;;;;;24.38;17.90;;;9.80;99.90;;;;;;2079710;28;20029;-71
2022/10/23 03:48:13;;;;;;;23.27;17.70;;;9.80;99.90;;;;;;2072289;28;20508;-72
2022/10/23 03:49:14;;;;;;;24.40;17.73;;;9.80;99.90;;;;;;2080418;28;20423;-72
2022/10/23 03:50:18;;;;;;;24.52;18.00;;;9.80;99.90;;;;;;2072395;28;20030;-72
2022/10/23 03:51:19;;;;;;;24.17;18.25;;;9.80;99.90;;;;;;2072285;28;20029;-72
2022/10/23 03:52:19;;;;;;;23.77;18.05;;;9.80;99.90;;;;;;2072323;28;20498;-72
2022/10/23 03:53:20;;;;;;;24.60;18.00;;;9.80;99.90;;;;;;2072768;28;20033;-72
2022/10/23 03:54:23;;;;;;;26.20;18.85;;;9.80;99.90;;;;;;2071731;28;20088;-72
2022/10/23 03:55:25;;;;;;;25.23;17.98;;;9.80;99.90;;;;;;2071358;28;20053;-72
2022/10/23 03:56:27;;;;;;;25.65;19.33;;;9.70;99.90;;;;;;2071540;28;20066;-72
2022/10/23 03:57:27;;;;;;;25.33;18.65;;;9.70;99.90;;;;;;2071662;28;20042;-72
2022/10/23 03:58:28;;;;;;;26.65;19.00;;;9.70;99.90;;;;;;2071549;28;20049;-72
2022/10/23 03:59:29;;;;;;;25.05;18.75;;;9.70;99.90;;;;;;2078795;28;20052;-73
2022/10/23 04:00:32;;;;;;;24.77;18.23;;;9.80;99.90;;;;;;2079638;28;20029;-72
2022/10/23 04:01:34;;;;;;;24.50;18.00;;;9.70;99.90;;;;;;2071363;28;20032;-72
2022/10/23 04:02:35;;;;;;;23.55;18.10;;;9.70;99.90;;;;;;2071538;28;20511;-71
2022/10/23 04:03:37;;;;;;;23.83;18.42;;;9.70;99.90;;;;;;2071395;28;20029;-70
2022/10/23 04:04:37;;;;;;;24.98;18.90;;;9.70;99.90;;;;;;2079299;28;20103;-71
2022/10/23 04:05:40;;;;;;;25.13;18.23;;;9.70;99.90;;;;;;2087916;28;20100;-72
2022/10/23 04:06:41;;;;;;;23.25;17.88;;;9.70;99.90;;;;;;2079747;28;20026;-71
2022/10/23 04:07:41;;;;;;;27.85;19.05;;;9.70;99.90;;;;;;2079668;28;20654;-71
2022/10/23 04:08:44;;;;;;;23.42;18.10;;;9.70;99.90;;;;;;2079563;28;20025;-73
2022/10/23 04:09:49;;;;;;;28.13;20.00;;;9.70;99.90;;;;;;2072179;28;20053;-74
2022/10/23 04:10:50;;;;;;;25.73;19.08;;;9.70;99.90;;;;;;2071201;28;20589;-72
2022/10/23 04:11:55;;;;;;;27.40;19.30;;;9.70;99.90;;;;;;2079757;28;20435;-72
2022/10/23 04:12:59;;;;;;;27.90;19.83;;;9.70;99.90;;;;;;2079587;28;20117;-71
2022/10/23 04:14:01;;;;;;;27.23;19.33;;;9.80;99.90;;;;;;2079423;28;20076;-73
2022/10/23 04:15:02;;;;;;;26.23;18.77;;;9.80;99.90;;;;;;2079600;28;20516;-72
2022/10/23 04:16:03;;;;;;;25.45;19.35;;;9.70;99.90;;;;;;2083935;28;20029;-72
2022/10/23 04:17:03;;;;;;;27.48;19.55;;;9.70;99.90;;;;;;2083435;28;20112;-72
2022/10/23 04:18:04;;;;;;;28.85;19.92;;;9.80;99.90;;;;;;2088057;28;20029;-72
2022/10/23 04:19:05;;;;;;;29.10;20.83;;;9.80;99.90;;;;;;2087757;28;20062;-72
2022/10/23 04:20:06;;;;;;;30.60;21.10;;;9.80;99.90;;;;;;2087903;28;20087;-72
2022/10/23 04:21:07;;;;;;;30.17;20.15;;;9.80;99.90;;;;;;2075104;28;20030;-72
2022/10/23 04:22:08;;;;;;;29.90;20.45;;;9.80;99.90;;;;;;2071483;28;20022;-72
2022/10/23 04:23:09;;;;;;;29.85;21.25;;;9.80;99.90;;;;;;2079478;28;20391;-72
2022/10/23 04:24:09;;;;;;;29.02;20.45;;;9.80;99.90;;;;;;2079201;28;20401;-72
2022/10/23 04:25:10;;;;;;;28.13;19.58;;;9.80;99.90;;;;;;2079524;28;21667;-72
2022/10/23 04:26:11;;;;;;;28.65;19.60;;;9.80;99.90;;;;;;2079572;28;20025;-72
2022/10/23 04:27:12;;;;;;;29.98;19.83;;;9.80;99.90;;;;;;2079587;28;20026;-72
2022/10/23 04:28:13;;;;;;;27.92;19.60;;;9.70;99.90;;;;;;2079613;28;20152;-72
2022/10/23 04:29:15;;;;;;;29.17;20.08;;;9.70;99.90;;;;;;2067179;28;20014;-72
2022/10/23 04:30:15;;;;;;;31.08;21.15;;;9.70;99.90;;;;;;2077496;28;20018;-72
2022/10/23 04:31:17;;;;;;;32.72;22.10;;;9.70;99.90;;;;;;2087702;28;20025;-72
2022/10/23 04:32:18;;;;;;;34.60;23.65;;;9.70;99.90;;;;;;2079487;28;20024;-72
2022/10/23 04:33:18;;;;;;;33.95;23.10;;;9.70;99.90;;;;;;2079738;28;20419;-72
2022/10/23 04:34:22;;;;;;;37.47;23.77;;;9.70;99.90;;;;;;2079167;28;20059;-72
2022/10/23 04:35:28;;;;;;;41.63;25.88;;;9.70;99.90;;;;;;2079373;28;20048;-72
2022/10/23 04:36:28;;;;;;;43.33;26.58;;;9.70;99.90;;;;;;2071431;28;20527;-72
2022/10/23 04:37:32;;;;;;;43.55;26.73;;;9.70;99.90;;;;;;2088260;28;20809;-70
2022/10/23 04:38:34;;;;;;;41.95;26.58;;;9.70;99.90;;;;;;2087836;28;20021;-70
2022/10/23 04:39:35;;;;;;;41.20;26.45;;;9.70;99.90;;;;;;2080251;28;20021;-70
2022/10/23 04:40:37;;;;;;;39.88;26.00;;;9.80;99.90;;;;;;2079697;28;20049;-71
2022/10/23 04:41:39;;;;;;;43.53;27.40;;;9.70;99.90;;;;;;2079519;28;20049;-70
2022/10/23 04:42:40;;;;;;;40.53;26.90;;;9.70;99.90;;;;;;2079599;28;20163;-70
2022/10/23 04:43:41;;;;;;;38.30;24.90;;;9.70;99.90;;;;;;2071180;28;20034;-70
2022/10/23 04:44:41;;;;;;;37.47;25.52;;;9.70;99.90;;;;;;2079173;28;20026;-71
2022/10/23 04:45:43;;;;;;;38.08;25.55;;;9.70;99.90;;;;;;2080053;28;20025;-71
2022/10/23 04:46:43;;;;;;;35.88;25.35;;;9.70;99.90;;;;;;2071041;28;20457;-71
2022/10/23 04:47:44;;;;;;;38.20;26.13;;;9.70;99.90;;;;;;2079575;28;20021;-71
2022/10/23 04:48:45;;;;;;;37.42;25.13;;;9.70;99.90;;;;;;2096004;28;20129;-71
2022/10/23 04:50:19;;;;;;;42.45;27.23;;;9.70;99.90;;;;;;2080250;28;20076;-70
2022/10/23 04:51:38;;;;;;;46.15;28.67;;;9.70;99.90;;;;;;2080057;28;20605;-70
2022/10/23 04:52:46;;;;;;;55.35;33.00;;;9.70;99.90;;;;;;2071031;28;20120;-71
2022/10/23 04:54:23;;;;;;;58.58;33.38;;;9.60;99.90;;;;;;2063894;28;20026;-71
2022/10/23 04:55:47;;;;;;;;;;;9.70;99.90;;;;;;2071875;28;20034;-70
2022/10/23 04:56:54;;;;;;;56.20;32.03;;;9.60;99.90;;;;;;2079240;28;20457;-70
2022/10/23 04:57:55;;;;;;;56.10;33.13;;;9.60;99.90;;;;;;2078514;28;20025;-71
2022/10/23 04:58:59;;;;;;;52.67;31.50;;;9.60;99.90;;;;;;2071220;28;20030;-71
2022/10/23 04:59:59;;;;;;;51.30;32.67;;;9.60;99.90;;;;;;2079579;28;20167;-71
2022/10/23 05:01:01;;;;;;;55.25;34.28;;;9.60;99.90;;;;;;2072077;28;20591;-71
2022/10/23 05:02:02;;;;;;;55.50;33.90;;;9.60;99.90;;;;;;2064168;28;20026;-71
2022/10/23 05:03:03;;;;;;;53.85;32.80;;;9.70;99.90;;;;;;2077660;28;20045;-71
2022/10/23 05:04:09;;;;;;;51.00;32.35;;;9.60;99.90;;;;;;2071724;28;20058;-71
2022/10/23 05:05:30;;;;;;;;;;;9.70;99.90;;;;;;2062681;28;20385;-71
2022/10/23 05:07:00;;;;;;;47.40;29.15;;;9.70;99.90;;;;;;2065141;28;19909;-70
2022/10/23 05:08:17;;;;;;;45.50;28.05;;;9.60;99.90;;;;;;2068430;28;20437;-70
2022/10/23 05:09:37;;;;;;;43.65;27.73;;;9.70;99.90;;;;;;2076821;28;20875;-71
2022/10/23 05:10:50;;;;;;;41.35;26.60;;;9.70;99.90;;;;;;2080959;28;20025;-71
2022/10/23 05:11:51;;;;;;;39.00;25.35;;;9.70;99.90;;;;;;2076830;28;20029;-71
2022/10/23 05:12:51;;;;;;;40.10;25.20;;;9.60;99.90;;;;;;2081450;28;20064;-70
2022/10/23 05:13:55;;;;;;;38.00;24.52;;;9.60;99.90;;;;;;2087692;28;20060;-70
2022/10/23 05:15:02;;;;;;;38.20;23.90;;;9.60;99.90;;;;;;2079130;28;20033;-70
2022/10/23 05:16:03;;;;;;;38.58;24.65;;;9.60;99.90;;;;;;2079057;28;20501;-70
2022/10/23 05:17:15;;;;;;;37.17;24.55;;;9.60;99.90;;;;;;2074816;28;20034;-71
2022/10/23 05:18:27;;;;;;;40.00;24.85;;;9.60;99.90;;;;;;2079206;28;20116;-70
2022/10/23 05:19:35;;;;;;;38.53;25.33;;;9.60;99.90;;;;;;2079216;28;20614;-71
2022/10/23 05:20:38;;;;;;;39.28;25.23;;;9.60;99.90;;;;;;2079458;28;20030;-71
2022/10/23 05:21:39;;;;;;;47.38;29.95;;;9.60;99.90;;;;;;2079318;28;20041;-71
2022/10/23 05:22:42;;;;;;;45.38;27.67;;;9.70;99.90;;;;;;2079270;28;20040;-71
2022/10/23 05:23:45;;;;;;;43.65;27.52;;;9.70;99.90;;;;;;2071489;28;20528;-72
2022/10/23 05:24:48;;;;;;;42.28;26.55;;;9.70;99.90;;;;;;2070974;28;20764;-72
2022/10/23 05:25:52;;;;;;;41.80;25.75;;;9.70;99.90;;;;;;2073915;28;20030;-72
2022/10/23 05:26:52;;;;;;;41.10;25.83;;;9.70;99.90;;;;;;2070672;28;20034;-72
2022/10/23 05:27:54;;;;;;;40.03;25.73;;;9.80;99.90;;;;;;2071377;28;20180;-71
2022/10/23 05:28:55;;;;;;;40.45;24.70;;;9.80;99.90;;;;;;2071731;28;20029;-71
2022/10/23 05:29:56;;;;;;;42.42;26.50;;;9.80;99.90;;;;;;2080020;28;20032;-71
2022/10/23 05:31:02;;;;;;;37.47;25.20;;;9.80;99.90;;;;;;2080360;28;20033;-71
2022/10/23 05:32:07;;;;;;;39.78;25.33;;;9.80;99.90;;;;;;2072209;28;20026;-71
2022/10/23 05:33:09;;;;;;;41.65;25.13;;;9.80;99.90;;;;;;2073141;28;20029;-71
2022/10/23 05:34:15;;;;;;;38.40;24.35;;;9.80;99.90;;;;;;2071754;28;20049;-71
2022/10/23 05:35:21;;;;;;;38.78;24.58;;;9.80;99.90;;;;;;2071268;28;20054;-71